Time;durP1;ratioP1;P1;durP2;ratioP2;P2;SDS_P1;SDS_P2;PMS_P1;PMS_P2;Temp;Humidity;BMP_temperature;BMP_pressure;BME280_temperature;BME280_humidity;BME280_pressure;Samples;Min_cycle;Max_cycle;Signal;HPM_P1;HPM_P2
2021/12/28 00:01:49;;;;;;;60.22;29.02;;;;;;;;;;6244706;23;20020;-62
2021/12/28 00:04:15;;;;;;;66.82;32.03;;;;;;;;;;6217370;23;20020;-63
2021/12/28 00:06:41;;;;;;;64.85;31.60;;;;;;;;;;6219164;23;20008;-63
2021/12/28 00:09:08;;;;;;;64.95;32.30;;;;;;;;;;6245110;23;20468;-62
2021/12/28 00:11:34;;;;;;;62.15;31.45;;;;;;;;;;6219357;23;20418;-63
2021/12/28 00:14:02;;;;;;;64.25;32.25;;;;;;;;;;6219423;23;20319;-62
2021/12/28 00:16:32;;;;;;;71.53;31.92;;;;;;;;;;6244740;23;20182;-63
2021/12/28 00:18:59;;;;;;;66.63;29.30;;;;;;;;;;6220686;23;20062;-62
2021/12/28 00:21:25;;;;;;;67.45;32.60;;;;;;;;;;6243458;23;20456;-62
2021/12/28 00:23:51;;;;;;;68.82;32.88;;;;;;;;;;6244140;23;20090;-62
2021/12/28 00:26:17;;;;;;;60.83;32.55;;;;;;;;;;6244183;23;20058;-63
2021/12/28 00:28:45;;;;;;;73.85;34.72;;;;;;;;;;6244103;23;20012;-62
2021/12/28 00:31:13;;;;;;;72.18;32.83;;;;;;;;;;6218305;23;20012;-63
2021/12/28 00:33:39;;;;;;;75.32;33.92;;;;;;;;;;6220168;23;20468;-63
2021/12/28 00:36:05;;;;;;;83.15;33.03;;;;;;;;;;6243971;23;20012;-62
2021/12/28 00:38:32;;;;;;;77.28;33.38;;;;;;;;;;6219238;23;20329;-62
2021/12/28 00:41:00;;;;;;;90.70;33.88;;;;;;;;;;6244396;23;20020;-63
2021/12/28 00:43:27;;;;;;;80.25;34.03;;;;;;;;;;6245785;23;20044;-63
2021/12/28 00:45:53;;;;;;;94.55;36.58;;;;;;;;;;6217911;23;20044;-63
2021/12/28 00:48:19;;;;;;;80.43;33.67;;;;;;;;;;6244682;23;20310;-63
2021/12/28 00:50:46;;;;;;;87.10;35.80;;;;;;;;;;6243238;23;20019;-63
2021/12/28 00:53:12;;;;;;;114.38;38.08;;;;;;;;;;6243695;23;20066;-62
2021/12/28 00:55:38;;;;;;;96.78;34.83;;;;;;;;;;6245428;23;20456;-62
2021/12/28 00:58:04;;;;;;;98.70;35.22;;;;;;;;;;6219457;23;20434;-62
2021/12/28 01:00:31;;;;;;;121.18;37.40;;;;;;;;;;6244253;23;20018;-63
2021/12/28 01:02:59;;;;;;;130.85;37.78;;;;;;;;;;6242948;23;20043;-63
2021/12/28 01:05:25;;;;;;;147.02;37.80;;;;;;;;;;6243466;23;20017;-61
2021/12/28 01:07:53;;;;;;;97.13;34.70;;;;;;;;;;6245774;23;20105;-61
2021/12/28 01:10:21;;;;;;;161.98;40.88;;;;;;;;;;6219157;23;20307;-61
2021/12/28 01:12:49;;;;;;;149.95;38.72;;;;;;;;;;6221367;23;20039;-61
2021/12/28 01:15:16;;;;;;;162.18;39.88;;;;;;;;;;6245611;23;20501;-61
2021/12/28 01:17:42;;;;;;;145.07;37.53;;;;;;;;;;6247029;23;20051;-60
2021/12/28 01:20:10;;;;;;;166.00;40.75;;;;;;;;;;6245816;23;20544;-61
2021/12/28 01:22:37;;;;;;;237.32;42.83;;;;;;;;;;6246349;23;20302;-61
2021/12/28 01:25:03;;;;;;;144.52;39.45;;;;;;;;;;6221810;23;20507;-61
2021/12/28 01:27:29;;;;;;;141.30;40.67;;;;;;;;;;6221382;23;20020;-61
2021/12/28 01:29:55;;;;;;;172.80;41.17;;;;;;;;;;6220625;23;20012;-60
2021/12/28 01:32:22;;;;;;;127.70;38.33;;;;;;;;;;6221457;23;20012;-60
2021/12/28 01:34:48;;;;;;;154.32;39.30;;;;;;;;;;6246606;23;20016;-62
2021/12/28 01:37:14;;;;;;;297.95;46.85;;;;;;;;;;6245752;23;20425;-61
2021/12/28 01:39:40;;;;;;;139.60;39.47;;;;;;;;;;6246555;23;20009;-61
2021/12/28 01:42:07;;;;;;;250.55;44.40;;;;;;;;;;6221308;23;20019;-61
2021/12/28 01:44:33;;;;;;;261.33;44.70;;;;;;;;;;6245669;23;20020;-61
2021/12/28 01:46:59;;;;;;;281.20;45.53;;;;;;;;;;6244750;23;20012;-61
2021/12/28 01:49:25;;;;;;;310.08;49.55;;;;;;;;;;6245994;23;20012;-61
2021/12/28 01:51:52;;;;;;;154.07;40.17;;;;;;;;;;6244336;23;20012;-62
2021/12/28 01:54:18;;;;;;;303.33;47.47;;;;;;;;;;6219765;23;20024;-61
2021/12/28 01:56:45;;;;;;;272.00;47.03;;;;;;;;;;6220290;23;20031;-61
2021/12/28 01:59:12;;;;;;;154.43;39.22;;;;;;;;;;6247811;23;20298;-61
2021/12/28 02:01:39;;;;;;;169.77;41.00;;;;;;;;;;6246044;23;20012;-61
2021/12/28 02:04:22;;;;;;;151.70;39.00;;;;;;;;;;6246117;23;20016;-61
2021/12/28 02:06:49;;;;;;;146.77;36.47;;;;;;;;;;6245763;23;20368;-61
2021/12/28 02:09:16;;;;;;;185.65;42.05;;;;;;;;;;6244857;23;20012;-61
2021/12/28 02:11:42;;;;;;;127.82;36.92;;;;;;;;;;6244614;23;20016;-61
2021/12/28 02:14:08;;;;;;;144.50;39.13;;;;;;;;;;6246122;23;20055;-61
2021/12/28 02:16:35;;;;;;;133.35;38.53;;;;;;;;;;6220983;23;20421;-61
2021/12/28 02:19:03;;;;;;;125.57;35.22;;;;;;;;;;6246301;23;20008;-61
2021/12/28 02:21:31;;;;;;;132.45;36.92;;;;;;;;;;6220651;23;20019;-61
2021/12/28 02:23:57;;;;;;;120.20;36.53;;;;;;;;;;6220441;23;20022;-61
2021/12/28 02:26:23;;;;;;;127.00;35.33;;;;;;;;;;6244192;23;20023;-61
2021/12/28 02:28:49;;;;;;;104.10;35.40;;;;;;;;;;6244670;23;20042;-61
2021/12/28 02:31:15;;;;;;;107.40;35.88;;;;;;;;;;6245002;23;20008;-61
2021/12/28 02:33:42;;;;;;;120.20;36.50;;;;;;;;;;6245474;23;20031;-63
2021/12/28 02:36:08;;;;;;;121.75;36.17;;;;;;;;;;6220675;23;20425;-63
2021/12/28 02:38:35;;;;;;;112.93;36.30;;;;;;;;;;6219133;23;20052;-63
2021/12/28 02:41:02;;;;;;;114.07;35.70;;;;;;;;;;6245523;23;20016;-63
2021/12/28 02:43:28;;;;;;;107.00;33.17;;;;;;;;;;6221177;23;20016;-62
2021/12/28 02:45:58;;;;;;;126.07;37.25;;;;;;;;;;6247420;23;20347;-62
2021/12/28 02:48:26;;;;;;;112.30;33.83;;;;;;;;;;6245934;23;20016;-62
2021/12/28 02:51:04;;;;;;;114.70;35.55;;;;;;;;;;6244812;23;20098;-61
2021/12/28 02:53:30;;;;;;;102.38;34.05;;;;;;;;;;6246331;23;20432;-61
2021/12/28 02:55:56;;;;;;;113.03;35.63;;;;;;;;;;6245915;23;20058;-62
2021/12/28 02:58:25;;;;;;;101.10;33.75;;;;;;;;;;6244094;23;20008;-62
2021/12/28 03:00:53;;;;;;;89.95;34.22;;;;;;;;;;6245574;23;20020;-62
2021/12/28 03:03:21;;;;;;;97.63;32.63;;;;;;;;;;6220272;23;20506;-62
2021/12/28 03:05:48;;;;;;;99.28;35.55;;;;;;;;;;6221281;23;20161;-61
2021/12/28 03:08:15;;;;;;;103.55;34.17;;;;;;;;;;6245462;23;20096;-61
2021/12/28 03:10:42;;;;;;;99.57;33.90;;;;;;;;;;6245731;23;20008;-60
2021/12/28 03:13:09;;;;;;;83.43;30.83;;;;;;;;;;6218862;23;20019;-61
2021/12/28 03:15:36;;;;;;;87.75;33.05;;;;;;;;;;6246080;23;20437;-61
2021/12/28 03:18:02;;;;;;;105.03;33.72;;;;;;;;;;6245006;23;20051;-62
2021/12/28 03:20:28;;;;;;;96.55;31.33;;;;;;;;;;6245565;23;20340;-61
2021/12/28 03:22:53;;;;;;;95.72;31.67;;;;;;;;;;6219115;23;20016;-62
2021/12/28 03:25:20;;;;;;;86.78;29.90;;;;;;;;;;6246033;23;20446;-62
2021/12/28 03:27:47;;;;;;;97.50;30.38;;;;;;;;;;6220481;23;20108;-61
2021/12/28 03:30:14;;;;;;;78.80;27.83;;;;;;;;;;6220975;23;20009;-63
2021/12/28 03:32:41;;;;;;;85.03;30.83;;;;;;;;;;6220349;23;20353;-62
2021/12/28 03:35:08;;;;;;;95.88;32.88;;;;;;;;;;6220285;23;20016;-63
2021/12/28 03:37:34;;;;;;;87.60;29.83;;;;;;;;;;6245917;23;20008;-62
2021/12/28 03:40:01;;;;;;;80.43;26.88;;;;;;;;;;6220381;23;20012;-63
2021/12/28 03:42:27;;;;;;;77.93;27.45;;;;;;;;;;6245124;23;20016;-63
2021/12/28 03:44:53;;;;;;;87.40;28.05;;;;;;;;;;6220073;23;20031;-63
2021/12/28 03:47:19;;;;;;;87.82;27.40;;;;;;;;;;6220349;23;20063;-63
2021/12/28 03:49:45;;;;;;;90.95;31.25;;;;;;;;;;6244398;23;20016;-63
2021/12/28 03:52:11;;;;;;;87.80;29.63;;;;;;;;;;6245678;23;20008;-63
2021/12/28 03:54:37;;;;;;;81.63;28.08;;;;;;;;;;6245397;23;20008;-63
2021/12/28 03:57:03;;;;;;;77.55;25.15;;;;;;;;;;6220053;23;20016;-63
2021/12/28 03:59:29;;;;;;;71.80;27.52;;;;;;;;;;6245298;23;20056;-62
2021/12/28 04:01:56;;;;;;;73.75;29.27;;;;;;;;;;6220415;23;20107;-63
2021/12/28 04:04:22;;;;;;;75.50;27.98;;;;;;;;;;6244983;23;20317;-62
2021/12/28 04:06:48;;;;;;;65.72;27.35;;;;;;;;;;6245632;23;20027;-63
2021/12/28 04:09:20;;;;;;;70.30;27.15;;;;;;;;;;6246222;23;20014;-63
2021/12/28 04:11:47;;;;;;;72.10;28.98;;;;;;;;;;6244830;23;20409;-63
2021/12/28 04:14:13;;;;;;;77.88;27.75;;;;;;;;;;6245857;23;20298;-62
2021/12/28 04:16:39;;;;;;;71.72;25.98;;;;;;;;;;6221163;23;20016;-63
2021/12/28 04:19:06;;;;;;;61.92;23.40;;;;;;;;;;6243904;23;20066;-63
2021/12/28 04:21:33;;;;;;;72.30;25.80;;;;;;;;;;6219905;23;20031;-63
2021/12/28 04:23:59;;;;;;;68.70;24.30;;;;;;;;;;6246495;23;20059;-63
2021/12/28 04:26:27;;;;;;;62.05;22.48;;;;;;;;;;6245419;23;20436;-62
2021/12/28 04:28:53;;;;;;;62.25;21.35;;;;;;;;;;6218925;23;20086;-63
2021/12/28 04:31:19;;;;;;;61.85;21.38;;;;;;;;;;6244948;23;20455;-62
2021/12/28 04:33:45;;;;;;;57.97;22.25;;;;;;;;;;6247609;23;20023;-62
2021/12/28 04:36:13;;;;;;;55.03;21.10;;;;;;;;;;6245341;23;20054;-62
2021/12/28 04:38:41;;;;;;;59.05;22.33;;;;;;;;;;6245219;23;20456;-62
2021/12/28 04:41:07;;;;;;;54.08;19.75;;;;;;;;;;6245605;23;20017;-62
2021/12/28 04:43:33;;;;;;;50.58;19.23;;;;;;;;;;6245679;23;20431;-62
2021/12/28 04:45:59;;;;;;;54.33;22.80;;;;;;;;;;6243337;23;20012;-63
2021/12/28 04:48:25;;;;;;;52.30;21.40;;;;;;;;;;6244924;23;20016;-62
2021/12/28 04:50:51;;;;;;;59.58;20.35;;;;;;;;;;6219159;23;20016;-63
2021/12/28 04:53:17;;;;;;;59.65;22.13;;;;;;;;;;6218950;23;20015;-63
2021/12/28 04:55:45;;;;;;;49.50;20.00;;;;;;;;;;6219605;23;20023;-63
2021/12/28 04:58:11;;;;;;;51.20;20.20;;;;;;;;;;6245239;23;20325;-62
2021/12/28 05:00:37;;;;;;;53.38;20.85;;;;;;;;;;6220924;23;20008;-62
2021/12/28 05:03:04;;;;;;;52.60;20.95;;;;;;;;;;6244718;23;20294;-62
2021/12/28 05:05:30;;;;;;;50.83;21.02;;;;;;;;;;6244218;23;20074;-63
2021/12/28 05:07:56;;;;;;;48.13;19.17;;;;;;;;;;6219612;23;20016;-63
2021/12/28 05:10:23;;;;;;;46.95;20.25;;;;;;;;;;6245222;23;20346;-63
2021/12/28 05:12:50;;;;;;;50.00;19.50;;;;;;;;;;6244447;23;20078;-63
2021/12/28 05:15:16;;;;;;;43.30;20.73;;;;;;;;;;6243383;23;20027;-62
2021/12/28 05:17:42;;;;;;;43.92;18.15;;;;;;;;;;6244711;23;20360;-63
2021/12/28 05:20:09;;;;;;;48.42;20.17;;;;;;;;;;6246140;23;20012;-63
2021/12/28 05:22:35;;;;;;;53.55;21.40;;;;;;;;;;6243230;23;20303;-63
2021/12/28 05:25:01;;;;;;;53.50;19.00;;;;;;;;;;6245801;23;20019;-63
2021/12/28 05:27:27;;;;;;;39.65;16.90;;;;;;;;;;6243430;23;20368;-63
2021/12/28 05:29:53;;;;;;;42.35;17.20;;;;;;;;;;6219717;23;20023;-63
2021/12/28 05:32:19;;;;;;;40.55;16.60;;;;;;;;;;6219444;23;20019;-63
2021/12/28 05:34:45;;;;;;;40.75;16.02;;;;;;;;;;6244692;23;20085;-66
2021/12/28 05:37:11;;;;;;;46.08;16.40;;;;;;;;;;6244043;23;20021;-63
2021/12/28 05:39:37;;;;;;;44.60;15.57;;;;;;;;;;6244680;23;20038;-63
2021/12/28 05:42:03;;;;;;;39.45;14.95;;;;;;;;;;6243901;23;20016;-63
2021/12/28 05:44:29;;;;;;;45.38;14.35;;;;;;;;;;6244965;23;20429;-62
2021/12/28 05:46:56;;;;;;;38.50;16.70;;;;;;;;;;6219341;23;20019;-63
2021/12/28 05:49:22;;;;;;;40.05;15.68;;;;;;;;;;6245090;23;20050;-63
2021/12/28 05:51:48;;;;;;;33.70;14.73;;;;;;;;;;6220583;23;20012;-63
2021/12/28 05:54:14;;;;;;;36.75;14.80;;;;;;;;;;6244531;23;20104;-62
2021/12/28 05:56:41;;;;;;;47.22;13.77;;;;;;;;;;6220885;23;20034;-62
2021/12/28 05:59:07;;;;;;;34.50;12.95;;;;;;;;;;6245647;23;20039;-63
2021/12/28 06:01:33;;;;;;;31.33;11.82;;;;;;;;;;6221088;23;20019;-62
2021/12/28 06:03:59;;;;;;;36.90;13.70;;;;;;;;;;6245466;23;20426;-63
2021/12/28 06:06:26;;;;;;;31.77;12.43;;;;;;;;;;6221294;23;20012;-63
2021/12/28 06:08:52;;;;;;;33.83;13.55;;;;;;;;;;6245362;23;20020;-63
2021/12/28 06:11:19;;;;;;;35.22;12.13;;;;;;;;;;6246561;23;20091;-63
2021/12/28 06:13:45;;;;;;;34.08;13.27;;;;;;;;;;6246533;23;20027;-62
2021/12/28 06:16:11;;;;;;;30.23;13.85;;;;;;;;;;6246357;23;20008;-63
2021/12/28 06:18:37;;;;;;;28.63;13.30;;;;;;;;;;6220530;23;20039;-63
2021/12/28 06:21:03;;;;;;;31.05;13.38;;;;;;;;;;6247330;23;20103;-63
2021/12/28 06:23:29;;;;;;;38.05;14.13;;;;;;;;;;6246235;23;20016;-63
2021/12/28 06:25:56;;;;;;;29.98;12.20;;;;;;;;;;6246622;23;20069;-63
2021/12/28 06:28:22;;;;;;;32.03;13.10;;;;;;;;;;6244982;23;20020;-63
2021/12/28 06:30:48;;;;;;;36.55;12.50;;;;;;;;;;6246392;23;20417;-63
2021/12/28 06:33:15;;;;;;;29.48;11.77;;;;;;;;;;6246103;23;20051;-63
2021/12/28 06:35:41;;;;;;;30.08;11.88;;;;;;;;;;6247276;23;20113;-63
2021/12/28 06:38:07;;;;;;;39.08;12.85;;;;;;;;;;6245289;23;20012;-63
2021/12/28 06:40:34;;;;;;;34.58;12.73;;;;;;;;;;6246022;23;20448;-63
2021/12/28 06:43:00;;;;;;;28.50;12.70;;;;;;;;;;6220761;23;20520;-63
2021/12/28 06:45:26;;;;;;;37.88;13.73;;;;;;;;;;6246276;23;20008;-63
2021/12/28 06:47:52;;;;;;;29.00;12.15;;;;;;;;;;6246436;23;20019;-62
2021/12/28 06:50:18;;;;;;;26.52;11.07;;;;;;;;;;6220620;23;20325;-62
2021/12/28 06:52:44;;;;;;;32.90;12.07;;;;;;;;;;6246918;23;20023;-62
2021/12/28 06:55:11;;;;;;;25.83;10.50;;;;;;;;;;6220656;23;20074;-62
2021/12/28 06:57:38;;;;;;;31.83;12.93;;;;;;;;;;6247001;23;20042;-63
2021/12/28 07:00:09;;;;;;;37.72;10.80;;;;;;;;;;6246305;23;20011;-63
2021/12/28 07:02:35;;;;;;;30.70;11.75;;;;;;;;;;6246043;23;20016;-63
2021/12/28 07:05:01;;;;;;;31.90;11.82;;;;;;;;;;6195613;23;20042;-63
2021/12/28 07:07:27;;;;;;;30.70;11.23;;;;;;;;;;6195432;23;20048;-62
2021/12/28 07:09:53;;;;;;;35.58;11.50;;;;;;;;;;6221048;23;20111;-62
2021/12/28 07:12:19;;;;;;;28.63;10.75;;;;;;;;;;6220873;23;20019;-62
2021/12/28 07:14:45;;;;;;;32.03;12.25;;;;;;;;;;6195822;23;20379;-62
2021/12/28 07:17:11;;;;;;;21.73;9.10;;;;;;;;;;6220401;23;20012;-62
2021/12/28 07:19:37;;;;;;;38.10;11.10;;;;;;;;;;6221458;23;20012;-62
2021/12/28 07:22:03;;;;;;;28.58;10.57;;;;;;;;;;6219989;23;20091;-62
2021/12/28 07:24:30;;;;;;;33.45;10.90;;;;;;;;;;6220773;23;20019;-62
2021/12/28 07:26:56;;;;;;;30.98;10.77;;;;;;;;;;6220789;23;20016;-62
2021/12/28 07:29:22;;;;;;;29.70;11.20;;;;;;;;;;6220672;23;20425;-62
2021/12/28 07:31:49;;;;;;;25.85;10.52;;;;;;;;;;6220063;23;20361;-62
2021/12/28 07:34:15;;;;;;;31.75;10.07;;;;;;;;;;6246323;23;20042;-63
2021/12/28 07:36:41;;;;;;;25.70;9.95;;;;;;;;;;6219791;23;20456;-62
2021/12/28 07:39:07;;;;;;;24.98;9.95;;;;;;;;;;6219924;23;20023;-62
2021/12/28 07:41:34;;;;;;;27.25;10.10;;;;;;;;;;6194604;23;20361;-62
2021/12/28 07:44:00;;;;;;;25.38;9.77;;;;;;;;;;6219710;23;20086;-62
2021/12/28 07:46:26;;;;;;;27.70;10.73;;;;;;;;;;6220045;23;20329;-62
2021/12/28 07:48:52;;;;;;;30.65;10.10;;;;;;;;;;6219724;23;20012;-62
2021/12/28 07:51:18;;;;;;;26.65;10.20;;;;;;;;;;6220396;23;20015;-62
2021/12/28 07:53:44;;;;;;;28.05;9.85;;;;;;;;;;6195016;23;20071;-62
2021/12/28 07:56:10;;;;;;;29.30;10.18;;;;;;;;;;6218945;23;20023;-63
2021/12/28 07:58:36;;;;;;;24.55;9.52;;;;;;;;;;6218611;23;20020;-62
2021/12/28 08:01:02;;;;;;;26.83;8.25;;;;;;;;;;6194392;23;20039;-62
2021/12/28 08:03:28;;;;;;;22.60;8.32;;;;;;;;;;6227662;23;20058;-62
2021/12/28 08:05:54;;;;;;;26.48;8.70;;;;;;;;;;6219790;23;20020;-63
2021/12/28 08:08:20;;;;;;;25.17;8.15;;;;;;;;;;6244256;23;20073;-62
2021/12/28 08:10:46;;;;;;;25.80;9.07;;;;;;;;;;6220868;23;20412;-62
2021/12/28 08:13:13;;;;;;;22.00;8.27;;;;;;;;;;6245229;23;20364;-62
2021/12/28 08:15:39;;;;;;;24.65;8.52;;;;;;;;;;6244768;23;20091;-62
2021/12/28 08:18:09;;;;;;;22.30;9.00;;;;;;;;;;6245113;23;20008;-62
2021/12/28 08:20:35;;;;;;;25.25;7.97;;;;;;;;;;6244724;23;20365;-62
2021/12/28 08:23:01;;;;;;;28.17;7.43;;;;;;;;;;6219800;23;20077;-62
2021/12/28 08:25:27;;;;;;;22.50;7.75;;;;;;;;;;6244669;23;20015;-62
2021/12/28 08:27:53;;;;;;;31.05;10.02;;;;;;;;;;6245398;23;20022;-62
2021/12/28 08:30:20;;;;;;;24.45;8.15;;;;;;;;;;6244883;23;20508;-63
2021/12/28 08:32:46;;;;;;;22.95;9.02;;;;;;;;;;6245992;23;20043;-62
2021/12/28 08:35:13;;;;;;;33.42;8.20;;;;;;;;;;6244716;23;20020;-63
2021/12/28 08:37:39;;;;;;;29.60;9.07;;;;;;;;;;6245959;23;20012;-62
2021/12/28 08:40:06;;;;;;;24.98;7.93;;;;;;;;;;6245446;23;20354;-62
2021/12/28 08:42:32;;;;;;;27.58;8.95;;;;;;;;;;6244424;23;20294;-62
2021/12/28 08:44:58;;;;;;;34.10;8.35;;;;;;;;;;6219468;23;20027;-62
2021/12/28 08:47:27;;;;;;;28.30;8.45;;;;;;;;;;6243793;23;20011;-62
2021/12/28 08:49:56;;;;;;;30.73;8.90;;;;;;;;;;6219910;23;20075;-62
2021/12/28 08:52:22;;;;;;;23.90;8.77;;;;;;;;;;6245231;23;20011;-62
2021/12/28 08:54:48;;;;;;;29.08;8.40;;;;;;;;;;6245083;23;20023;-62
2021/12/28 08:57:14;;;;;;;27.95;9.35;;;;;;;;;;6245065;23;20020;-62
2021/12/28 08:59:41;;;;;;;25.77;9.15;;;;;;;;;;6247046;23;20091;-62
2021/12/28 09:02:08;;;;;;;30.80;9.45;;;;;;;;;;6244934;23;20014;-62
2021/12/28 09:04:36;;;;;;;30.27;9.27;;;;;;;;;;6246470;23;20429;-62
2021/12/28 09:07:02;;;;;;;21.25;7.10;;;;;;;;;;6220891;23;20055;-62
2021/12/28 09:09:28;;;;;;;27.83;9.00;;;;;;;;;;6246401;23;20117;-62
2021/12/28 09:11:55;;;;;;;27.27;10.20;;;;;;;;;;6219801;23;20042;-62
2021/12/28 09:14:21;;;;;;;29.73;10.07;;;;;;;;;;6219784;23;20012;-62
2021/12/28 09:16:47;;;;;;;27.83;9.88;;;;;;;;;;6247260;23;20012;-62
2021/12/28 09:19:13;;;;;;;31.17;9.85;;;;;;;;;;6219866;23;20314;-62
2021/12/28 09:21:39;;;;;;;30.77;11.85;;;;;;;;;;6246585;23;20012;-62
2021/12/28 09:24:05;;;;;;;32.08;10.88;;;;;;;;;;6220214;23;20027;-63
2021/12/28 09:26:31;;;;;;;30.95;11.68;;;;;;;;;;6219479;23;20046;-62
2021/12/28 09:28:57;;;;;;;27.27;11.38;;;;;;;;;;6220830;23;20012;-62
2021/12/28 09:31:23;;;;;;;33.97;12.23;;;;;;;;;;6220530;23;20012;-62
2021/12/28 09:33:49;;;;;;;28.02;12.57;;;;;;;;;;6247441;23;20012;-62
2021/12/28 09:36:16;;;;;;;28.90;12.48;;;;;;;;;;6220801;23;20307;-63
2021/12/28 09:38:46;;;;;;;25.13;12.82;;;;;;;;;;6220413;23;20015;-62
2021/12/28 09:41:12;;;;;;;27.67;13.00;;;;;;;;;;6220470;23;20027;-62
2021/12/28 09:43:39;;;;;;;28.30;12.20;;;;;;;;;;6222701;23;20027;-62
2021/12/28 09:46:05;;;;;;;29.63;13.98;;;;;;;;;;6221408;23;20016;-62
2021/12/28 09:48:32;;;;;;;28.48;13.50;;;;;;;;;;6247527;23;20016;-62
2021/12/28 09:50:58;;;;;;;33.95;13.82;;;;;;;;;;6221254;23;20368;-62
2021/12/28 09:53:24;;;;;;;38.28;15.55;;;;;;;;;;6196755;23;20020;-62
2021/12/28 09:55:50;;;;;;;32.25;12.85;;;;;;;;;;6171678;23;20447;-62
2021/12/28 09:58:16;;;;;;;28.45;12.55;;;;;;;;;;6195380;23;20091;-62
2021/12/28 10:00:42;;;;;;;22.77;12.38;;;;;;;;;;6248321;23;20019;-62
2021/12/28 10:03:08;;;;;;;24.67;12.70;;;;;;;;;;6225409;23;20019;-61
2021/12/28 10:05:35;;;;;;;34.05;13.00;;;;;;;;;;6245294;23;20025;-62
2021/12/28 10:08:02;;;;;;;34.70;13.95;;;;;;;;;;6245268;23;20333;-62
2021/12/28 10:10:29;;;;;;;21.40;10.13;;;;;;;;;;6245856;23;20019;-62
2021/12/28 10:13:01;;;;;;;22.70;11.65;;;;;;;;;;6246031;23;20322;-62
2021/12/28 10:15:29;;;;;;;31.25;13.07;;;;;;;;;;6246815;23;20012;-61
2021/12/28 10:17:57;;;;;;;24.88;10.07;;;;;;;;;;6246272;23;20012;-61
2021/12/28 10:20:25;;;;;;;23.90;10.68;;;;;;;;;;6220543;23;20298;-61
2021/12/28 10:22:59;;;;;;;22.92;10.73;;;;;;;;;;6245568;23;20329;-62
2021/12/28 10:25:35;;;;;;;25.08;10.40;;;;;;;;;;6246419;23;20016;-61
2021/12/28 10:28:04;;;;;;;22.10;10.18;;;;;;;;;;6246170;23;20008;-61
2021/12/28 10:30:32;;;;;;;27.00;10.45;;;;;;;;;;6246099;23;20011;-61
2021/12/28 10:33:03;;;;;;;22.70;9.98;;;;;;;;;;6246335;23;20009;-60
2021/12/28 10:35:34;;;;;;;21.38;10.65;;;;;;;;;;6246402;23;20035;-60
2021/12/28 10:38:04;;;;;;;33.10;13.38;;;;;;;;;;6246195;23;20087;-60
2021/12/28 10:40:33;;;;;;;27.65;12.32;;;;;;;;;;6246847;23;20016;-60
2021/12/28 10:43:03;;;;;;;31.83;12.20;;;;;;;;;;6244544;23;20020;-61
2021/12/28 10:45:37;;;;;;;27.53;10.40;;;;;;;;;;6246584;23;20173;-60
2021/12/28 10:48:09;;;;;;;21.70;11.80;;;;;;;;;;6246004;23;20501;-61
2021/12/28 10:50:38;;;;;;;23.33;10.63;;;;;;;;;;6245624;23;20043;-60
2021/12/28 10:53:06;;;;;;;18.40;8.75;;;;;;;;;;6245819;23;20012;-60
2021/12/28 10:55:33;;;;;;;21.38;9.25;;;;;;;;;;6246737;22;20020;-60
2021/12/28 10:57:59;;;;;;;27.08;11.38;;;;;;;;;;6246531;23;20037;-60
2021/12/28 11:00:33;;;;;;;22.80;9.00;;;;;;;;;;6220873;23;20051;-59
2021/12/28 11:03:14;;;;;;;18.85;10.13;;;;;;;;;;6245660;23;20019;-59
2021/12/28 11:05:41;;;;;;;15.50;8.32;;;;;;;;;;6220889;23;20429;-58
2021/12/28 11:08:07;;;;;;;17.60;9.48;;;;;;;;;;6246944;23;20099;-59
2021/12/28 11:10:34;;;;;;;18.48;8.93;;;;;;;;;;6246709;23;20016;-59
2021/12/28 11:13:00;;;;;;;14.52;6.75;;;;;;;;;;6246120;23;20377;-59
2021/12/28 11:15:26;;;;;;;16.50;8.20;;;;;;;;;;6245319;23;20038;-59
2021/12/28 11:17:53;;;;;;;17.38;8.15;;;;;;;;;;6246403;23;20016;-59
2021/12/28 11:20:32;;;;;;;14.93;8.27;;;;;;;;;;6246141;23;20034;-59
2021/12/28 11:23:11;;;;;;;13.30;8.15;;;;;;;;;;6245365;23;20067;-59
2021/12/28 11:25:37;;;;;;;12.63;6.95;;;;;;;;;;6247485;23;20298;-60
2021/12/28 11:28:13;;;;;;;14.65;8.30;;;;;;;;;;6246931;23;20062;-60
2021/12/28 11:30:40;;;;;;;15.07;7.57;;;;;;;;;;6246706;23;20051;-60
2021/12/28 11:33:07;;;;;;;7.82;5.03;;;;;;;;;;6247489;23;20369;-60
2021/12/28 11:35:33;;;;;;;11.23;6.50;;;;;;;;;;6245438;23;20012;-60
2021/12/28 11:37:59;;;;;;;10.00;6.50;;;;;;;;;;6248091;23;20058;-60
2021/12/28 11:40:25;;;;;;;9.50;6.68;;;;;;;;;;6246642;22;20042;-60
2021/12/28 11:42:51;;;;;;;10.13;6.53;;;;;;;;;;6246372;23;20016;-60
2021/12/28 11:45:20;;;;;;;13.13;6.55;;;;;;;;;;6245401;23;20373;-60
2021/12/28 11:47:46;;;;;;;12.32;6.85;;;;;;;;;;6247023;22;20016;-60
2021/12/28 11:50:12;;;;;;;11.30;6.35;;;;;;;;;;6246954;23;20020;-60
2021/12/28 11:52:38;;;;;;;11.93;6.60;;;;;;;;;;6245433;23;20030;-60
2021/12/28 11:55:04;;;;;;;9.68;6.40;;;;;;;;;;6246849;23;20012;-60
2021/12/28 11:57:30;;;;;;;11.82;6.15;;;;;;;;;;6218569;23;20016;-60
2021/12/28 12:00:02;;;;;;;12.13;6.88;;;;;;;;;;6244174;23;20441;-60
2021/12/28 12:02:37;;;;;;;11.15;6.50;;;;;;;;;;6220170;23;20019;-61
2021/12/28 12:05:12;;;;;;;12.45;7.47;;;;;;;;;;6193939;23;20080;-61
2021/12/28 12:07:39;;;;;;;11.75;6.82;;;;;;;;;;6218357;23;20012;-61
2021/12/28 12:10:12;;;;;;;10.52;7.10;;;;;;;;;;6245483;23;20012;-61
2021/12/28 12:12:53;;;;;;;14.95;7.07;;;;;;;;;;6193625;23;20019;-61
2021/12/28 12:15:20;;;;;;;11.75;7.28;;;;;;;;;;6218137;23;20024;-61
2021/12/28 12:17:47;;;;;;;11.05;7.20;;;;;;;;;;6218468;23;20329;-62
2021/12/28 12:20:16;;;;;;;10.25;6.85;;;;;;;;;;6193723;23;20490;-61
2021/12/28 12:22:48;;;;;;;11.93;7.22;;;;;;;;;;6194467;23;20493;-60
2021/12/28 12:25:29;;;;;;;11.80;7.28;;;;;;;;;;6196117;23;20065;-60
2021/12/28 12:27:57;;;;;;;14.70;8.02;;;;;;;;;;6220573;23;20016;-61
2021/12/28 12:30:23;;;;;;;12.13;7.05;;;;;;;;;;6194877;23;20012;-61
2021/12/28 12:33:00;;;;;;;11.02;6.95;;;;;;;;;;6194849;23;20074;-60
2021/12/28 12:35:35;;;;;;;10.88;6.95;;;;;;;;;;6219766;23;20095;-61
2021/12/28 12:38:21;;;;;;;10.27;7.30;;;;;;;;;;6219640;23;20087;-60
2021/12/28 12:40:50;;;;;;;10.90;6.25;;;;;;;;;;6220104;23;20054;-60
2021/12/28 12:43:17;;;;;;;11.73;7.40;;;;;;;;;;6194893;23;20008;-60
2021/12/28 12:45:54;;;;;;;9.20;5.43;;;;;;;;;;6220904;23;20092;-60
2021/12/28 12:48:52;;;;;;;10.27;6.85;;;;;;;;;;6219523;23;20016;-61
2021/12/28 12:51:22;;;;;;;9.32;6.47;;;;;;;;;;6194456;23;20062;-61
2021/12/28 12:53:48;;;;;;;13.68;7.82;;;;;;;;;;6219835;23;20011;-60
2021/12/28 12:56:16;;;;;;;11.48;7.45;;;;;;;;;;6195956;23;20019;-61
2021/12/28 12:58:45;;;;;;;12.05;8.10;;;;;;;;;;6194813;23;20012;-61
2021/12/28 13:01:37;;;;;;;11.63;7.55;;;9.20;99.90;;;;;;6219115;23;20429;-60
2021/12/28 13:04:23;;;;;;;11.05;7.30;;;;;;;;;;6178454;23;20162;-61
2021/12/28 13:07:08;;;;;;;11.18;6.68;;;9.20;99.90;;;;;;6243642;23;20023;-61
2021/12/28 13:09:36;;;;;;;11.90;8.32;;;;;;;;;;6219120;23;20460;-61
2021/12/28 13:12:05;;;;;;;13.55;7.90;;;;;;;;;;6244988;23;20353;-61
2021/12/28 13:14:31;;;;;;;12.07;6.72;;;;;;;;;;6245326;23;20019;-61
2021/12/28 13:17:01;;;;;;;19.83;6.95;;;;;;;;;;6244457;23;20020;-61
2021/12/28 13:19:27;;;;;;;;;;;9.10;99.90;;;;;;6244971;23;20008;-62
2021/12/28 13:21:57;;;;;;;12.25;7.38;;;;;;;;;;6244537;23;19912;-61
2021/12/28 13:24:23;;;;;;;17.02;8.13;;;;;;;;;;6245085;23;20023;-62
2021/12/28 13:26:51;;;;;;;13.65;7.00;;;;;;;;;;6244825;23;20373;-61
2021/12/28 13:29:24;;;;;;;13.75;8.52;;;;;;;;;;6244379;23;20075;-62
2021/12/28 13:31:50;;;;;;;12.38;7.57;;;;;;;;;;6243944;23;20455;-62
2021/12/28 13:34:16;;;;;;;12.75;7.60;;;;;;;;;;6246019;23;20062;-60
2021/12/28 13:36:58;;;;;;;13.70;7.65;;;;;;;;;;6244715;23;20012;-60
2021/12/28 13:39:24;;;;;;;17.88;7.60;;;;;;;;;;6242180;23;20016;-61
2021/12/28 13:41:54;;;;;;;4.22;2.65;;;;;;;;;;6219325;23;20008;-60
2021/12/28 13:44:20;;;;;;;3.65;2.28;;;;;;;;;;6244723;23;20015;-60
2021/12/28 13:46:46;;;;;;;8.80;3.45;;;;;;;;;;6244396;23;20074;-60
2021/12/28 13:49:16;;;;;;;10.18;3.47;;;;;;;;;;6218702;23;20022;-61
2021/12/28 13:51:42;;;;;;;19.23;3.60;;;;;;;;;;6243160;23;20012;-61
2021/12/28 13:54:08;;;;;;;7.57;3.30;;;;;;;;;;6243085;23;20012;-61
2021/12/28 13:56:36;;;;;;;9.77;2.90;;;;;;;;;;6243379;23;20099;-61
2021/12/28 13:59:04;;;;;;;12.38;3.50;;;;;;;;;;6218116;23;20016;-61
2021/12/28 14:01:31;;;;;;;13.05;3.65;;;;;;;;;;6245117;23;20119;-60
2021/12/28 14:04:08;;;;;;;14.20;3.33;;;;;;;;;;6217875;23;20092;-61
2021/12/28 14:06:36;;;;;;;10.20;2.85;;;;;;;;;;6243474;23;20023;-61
2021/12/28 14:09:07;;;;;;;17.38;3.50;;;;;;;;;;6244790;23;20015;-60
2021/12/28 14:11:32;;;;;;;;;;;;;;;;;;6243805;23;20401;-60
2021/12/28 14:13:59;;;;;;;13.15;2.60;;;;;;;;;;6242845;23;20005;-61
2021/12/28 14:16:25;;;;;;;16.85;3.38;;;;;;;;;;6243067;23;20110;-61
2021/12/28 14:18:52;;;;;;;16.25;2.83;;;;;;;;;;6219909;23;20019;-61
2021/12/28 14:21:28;;;;;;;19.70;3.55;;;;;;;;;;6219516;23;20302;-61